Terminal Aerodrome Forecast
Issued by NWS

Home | Current Version | Previous Version | Text Only | Print | Product List | Glossary On
Versions: 1 2 3 4 5 6 7 8 9 10 11 12 13 14 15 16 17 18 19 20 21 22 23 24 25 26 27 28 29 30 31
179
FTUS43 KLSX 180540
TAFUIN
TAF
KUIN 180540Z 1806/1906 25007KT P6SM OVC012
     FM180900 26007KT 5SM BR BKN008
     FM181200 24006KT 3SM BR SCT010
     FM181500 21006KT 5SM BR SCT010
     FM181700 20008KT P6SM SCT030
     FM190100 16005KT P6SM SCT120=

USA.gov is the U.S. government's official web portal to all federal, state and local government web resources and services.